Change the Weather History Date:

Monday, July 8, 2013

  Actual Average Record
Temperature  
Mean Temperature 79 °F -  
Max Temperature 87 °F 87 °F 96 °F (1948)
Min Temperature 71 °F 66 °F 48 °F (2004)
Cooling Degree Days 14    
Growing Degree Days 29 (Base 50)    
Moisture  
Dew Point 62 °F    
Average Humidity 58    
Maximum Humidity 83    
Minimum Humidity 28    
Precipitation  
Precipitation 0.50 in - - ()
Sea Level Pressure  
Sea Level Pressure 29.99 in    
Wind  
Wind Speed 9 mph (SW)    
Max Wind Speed 18 mph    
Max Gust Speed 22 mph    
Visibility 10 miles    
Events Thunderstorm    
Averages and records for this station are not official NWS values.
T = Trace of Precipitation, MM = Missing Value Source: NWS Daily Summary

Daily Weather History Graph

Daily Weather History Graph

Search for Another Location

Airport or City:

Trip Planner

Search our weather history database for the weather conditions in past years. The results will help you decide how hot, cold, wet, or windy it might be!

Date:

Astronomy

Jul. 08, 2013 Rise Set
Actual Time 5:34 AM CDT 8:38 PM CDT
Civil Twilight 5:00 AM CDT 9:11 PM CDT
Nautical Twilight 4:17 AM CDT 9:54 PM CDT
Astronomical Twilight 3:26 AM CDT 10:45 PM CDT
Moon 6:05 AM CDT (7/8) 8:38 PM CDT (7/8)
Length of Visible Light 16h 10m
Length of Day
15h 03m
New Moon, 0% of the Moon is Illuminated
Jul 8
New Moon
Jul 15
First Quarter
Jul 22
Full
Jul 29
Last Quarter
Aug 6
New

Hourly Weather History & Observations

Time (CDT) Temp. Heat Index Dew Point Humidity Pressure Visibility Wind Dir Wind Speed Gust Speed Precip Events Conditions
12:15 AM 75.2 °F - 60.8 °F 61% 30.00 in 10.0 mi SSE 5.8 mph - N/A   Partly Cloudy
12:35 AM 75.2 °F - 60.8 °F 61% 30.00 in 10.0 mi SSE 4.6 mph - N/A   Clear
12:55 AM 73.4 °F - 60.8 °F 65% 30.00 in 10.0 mi SSE 5.8 mph - N/A   Clear
1:15 AM 73.4 °F - 62.6 °F 69% 29.99 in 10.0 mi SSE 8.1 mph - N/A   Clear
1:35 AM 75.2 °F - 62.6 °F 65% 29.99 in 10.0 mi SSE 6.9 mph - N/A   Clear
1:55 AM 73.4 °F - 62.6 °F 69% 29.98 in 10.0 mi SSE 6.9 mph - N/A   Clear
2:15 AM 73.4 °F - 62.6 °F 69% 29.98 in 10.0 mi South 8.1 mph - N/A   Clear
2:35 AM 75.2 °F - 62.6 °F 65% 29.97 in 10.0 mi South 8.1 mph - N/A   Clear
2:55 AM 75.2 °F - 62.6 °F 65% 29.97 in 10.0 mi SSW 6.9 mph - N/A   Partly Cloudy
3:15 AM 75.2 °F - 60.8 °F 61% 29.97 in 10.0 mi SW 8.1 mph - N/A   Partly Cloudy
3:35 AM 75.2 °F - 60.8 °F 61% 29.97 in 10.0 mi SW 13.8 mph 18.4 mph N/A Thunderstorm Scattered Clouds
3:55 AM 73.4 °F - 60.8 °F 65% 30.00 in 10.0 mi West 10.4 mph - N/A Thunderstorm Thunderstorm
4:15 AM 71.6 °F - 66.2 °F 83% 30.01 in 5.0 mi Calm Calm - 0.16 in Thunderstorm Thunderstorm
4:35 AM 71.6 °F - 64.4 °F 78% 30.01 in 5.0 mi ESE 9.2 mph - 0.28 in Thunderstorm Thunderstorm
4:55 AM 71.6 °F - 66.2 °F 83% 30.02 in 9.0 mi East 9.2 mph - 0.36 in Thunderstorm Mostly Cloudy
5:15 AM 71.6 °F - 64.4 °F 78% 30.01 in 7.0 mi SSE 10.4 mph - 0.12 in Thunderstorm Mostly Cloudy
5:35 AM 71.6 °F - 66.2 °F 83% 30.02 in 9.0 mi South 8.1 mph - 0.12 in Thunderstorm Thunderstorm
5:55 AM 71.6 °F - 64.4 °F 78% 30.00 in 10.0 mi SSE 9.2 mph - 0.14 in Thunderstorm Mostly Cloudy
6:15 AM 71.6 °F - 64.4 °F 78% 30.00 in 10.0 mi SSE 8.1 mph - N/A   Mostly Cloudy
6:35 AM 71.6 °F - 64.4 °F 78% 30.00 in 10.0 mi SSE 10.4 mph - N/A   Scattered Clouds
6:55 AM 71.6 °F - 64.4 °F 78% 29.99 in 10.0 mi SSE 10.4 mph - N/A   Partly Cloudy
7:15 AM 71.6 °F - 66.2 °F 83% 29.99 in 10.0 mi SSE 11.5 mph - N/A   Clear
7:35 AM 71.6 °F - 66.2 °F 83% 30.00 in 10.0 mi SSE 11.5 mph - N/A   Clear
7:55 AM 73.4 °F - 66.2 °F 78% 30.00 in 9.0 mi SSE 8.1 mph - N/A   Clear
8:15 AM 73.4 °F - 66.2 °F 78% 29.99 in 10.0 mi South 10.4 mph - N/A   Clear
8:35 AM 73.4 °F - 66.2 °F 78% 30.00 in 10.0 mi SSW 10.4 mph - N/A   Clear
8:55 AM 75.2 °F - 66.2 °F 73% 30.00 in 10.0 mi SSW 10.4 mph - N/A   Clear
9:15 AM 75.2 °F - 68.0 °F 78% 30.00 in 10.0 mi SW 10.4 mph - N/A   Clear
9:35 AM 77.0 °F - 68.0 °F 74% 30.00 in 10.0 mi SW 11.5 mph - N/A   Clear
9:55 AM 78.8 °F - 68.0 °F 69% 30.00 in 10.0 mi WSW 11.5 mph - N/A   Clear
10:15 AM 78.8 °F - 68.0 °F 69% 30.00 in 10.0 mi SW 8.1 mph - N/A   Clear
10:35 AM 80.6 °F 83.9 °F 69.8 °F 70% 30.00 in 10.0 mi WSW 13.8 mph 17.3 mph N/A   Clear
10:55 AM 80.6 °F 83.2 °F 68.0 °F 65% 30.00 in 10.0 mi WSW 16.1 mph 19.6 mph N/A   Clear
11:15 AM 80.6 °F - 44.6 °F 28% 30.01 in 10.0 mi SW 16.1 mph - N/A   Clear
11:35 AM 82.4 °F - 51.8 °F 35% 30.00 in 10.0 mi WSW 15.0 mph - N/A   Clear
11:55 AM 84.2 °F 82.8 °F 53.6 °F 35% 30.00 in 10.0 mi SW 16.1 mph 20.7 mph N/A   Clear
12:15 PM 84.2 °F 83.0 °F 55.4 °F 37% 29.99 in 10.0 mi WSW 16.1 mph - N/A   Clear
12:35 PM 84.2 °F 83.0 °F 55.4 °F 37% 29.99 in 10.0 mi WSW 15.0 mph 20.7 mph N/A   Clear
12:55 PM 86.0 °F 84.9 °F 57.2 °F 37% 29.99 in 10.0 mi WSW 13.8 mph 21.9 mph N/A   Clear
1:15 PM 87.8 °F 86.5 °F 57.2 °F 35% 29.98 in 10.0 mi WSW 17.3 mph 21.9 mph N/A   Clear
1:35 PM 86.0 °F 84.9 °F 57.2 °F 37% 29.98 in 10.0 mi WSW 15.0 mph - N/A   Clear
1:55 PM 87.8 °F 86.5 °F 57.2 °F 35% 29.98 in 10.0 mi West 18.4 mph - N/A   Partly Cloudy
2:15 PM 87.8 °F 86.5 °F 57.2 °F 35% 29.98 in 10.0 mi WSW 12.7 mph 21.9 mph N/A   Clear
2:35 PM 87.8 °F 86.5 °F 57.2 °F 35% 29.98 in 10.0 mi West 15.0 mph 19.6 mph N/A   Clear
2:55 PM 87.8 °F 87.1 °F 59.0 °F 38% 29.98 in 10.0 mi West 15.0 mph - N/A   Clear
3:15 PM 87.8 °F 86.5 °F 57.2 °F 35% 29.98 in 10.0 mi West 13.8 mph 19.6 mph N/A   Clear
3:35 PM 87.8 °F 86.5 °F 57.2 °F 35% 29.98 in 10.0 mi WSW 15.0 mph - N/A   Clear
3:55 PM 87.8 °F 86.5 °F 57.2 °F 35% 29.98 in 10.0 mi WSW 15.0 mph - N/A   Clear
4:15 PM 87.8 °F 86.5 °F 57.2 °F 35% 29.98 in 10.0 mi WSW 13.8 mph 17.3 mph N/A   Clear
4:35 PM 87.8 °F 86.5 °F 57.2 °F 35% 29.98 in 10.0 mi WSW 11.5 mph - N/A   Clear
4:55 PM 87.8 °F 86.5 °F 57.2 °F 35% 29.98 in 10.0 mi WSW 10.4 mph 18.4 mph N/A   Clear
5:15 PM 87.8 °F 86.5 °F 57.2 °F 35% 29.98 in 10.0 mi West 11.5 mph - N/A   Clear
5:35 PM 87.8 °F 86.5 °F 57.2 °F 35% 29.98 in 10.0 mi WSW 11.5 mph - N/A   Clear
5:55 PM 86.0 °F 84.9 °F 57.2 °F 37% 29.98 in 10.0 mi West 6.9 mph - N/A   Clear
6:15 PM 86.0 °F 84.9 °F 57.2 °F 37% 29.98 in 10.0 mi WSW 11.5 mph - N/A   Clear
6:35 PM 84.2 °F 83.5 °F 57.2 °F 40% 29.98 in 10.0 mi WSW 9.2 mph - N/A   Clear
6:55 PM 84.2 °F 83.5 °F 57.2 °F 40% 29.98 in 10.0 mi WSW 9.2 mph - N/A   Clear
7:15 PM 84.2 °F 83.5 °F 57.2 °F 40% 29.98 in 10.0 mi WSW 8.1 mph - N/A   Clear
7:35 PM 82.4 °F 82.5 °F 59.0 °F 45% 29.99 in 10.0 mi WSW 6.9 mph - N/A   Clear
7:55 PM 82.4 °F 82.9 °F 60.8 °F 48% 30.00 in 10.0 mi SW 6.9 mph - N/A   Clear
8:15 PM 80.6 °F 82.3 °F 64.4 °F 58% 29.99 in 10.0 mi SW 6.9 mph - N/A   Clear
8:35 PM 78.8 °F - 66.2 °F 65% 29.99 in 10.0 mi SW 6.9 mph - N/A   Clear
8:55 PM 78.8 °F - 66.2 °F 65% 30.00 in 10.0 mi SSW 6.9 mph - N/A   Clear
9:15 PM 78.8 °F - 66.2 °F 65% 30.00 in 10.0 mi SSW 6.9 mph - N/A   Clear
9:35 PM 77.0 °F - 66.2 °F 69% 30.00 in 10.0 mi SW 4.6 mph - N/A   Clear
9:55 PM 77.0 °F - 66.2 °F 69% 30.01 in 10.0 mi SSW 3.5 mph - N/A   Clear
10:15 PM 75.2 °F - 66.2 °F 73% 30.01 in 10.0 mi SW 3.5 mph - N/A   Clear
10:35 PM 75.2 °F - 64.4 °F 69% 30.01 in 10.0 mi SW 4.6 mph - N/A   Clear
10:55 PM 75.2 °F - 64.4 °F 69% 30.01 in 10.0 mi Calm Calm - N/A   Clear
11:15 PM 75.2 °F - 64.4 °F 69% 30.01 in 10.0 mi SW 4.6 mph - N/A   Clear
11:35 PM 73.4 °F - 64.4 °F 73% 30.01 in 10.0 mi WSW 4.6 mph - N/A   Clear
11:55 PM 73.4 °F - 64.4 °F 73% 30.01 in 10.0 mi WSW 3.5 mph - N/A   Clear